Time;durP1;ratioP1;P1;durP2;ratioP2;P2;SDS_P1;SDS_P2;PMS_P1;PMS_P2;Temp;Humidity;BMP_temperature;BMP_pressure;BME280_temperature;BME280_humidity;BME280_pressure;Samples;Min_cycle;Max_cycle;Signal;HPM_P1;HPM_P2
2021/11/15 00:01:17;;;;;;;30.00;22.40;;;;;;;9.30;87.94;101822.00;5056194;28;20056;-63
2021/11/15 00:03:52;;;;;;;31.00;21.60;;;;;;;9.53;87.32;101817.81;5050134;28;20050;-63
2021/11/15 00:06:20;;;;;;;28.02;20.73;;;;;;;9.71;85.84;101817.22;5033975;28;20167;-62
2021/11/15 00:08:47;;;;;;;29.85;20.52;;;;;;;9.69;85.28;101817.47;5018787;28;20045;-63
2021/11/15 00:11:15;;;;;;;29.63;21.00;;;;;;;9.44;86.23;101822.25;5018950;28;20540;-63
2021/11/15 00:13:42;;;;;;;29.00;20.92;;;;;;;9.56;86.20;101826.34;5019519;28;20054;-63
2021/11/15 00:16:10;;;;;;;30.50;20.83;;;;;;;9.44;86.27;101820.31;5036926;28;20061;-61
2021/11/15 00:18:42;;;;;;;29.42;20.80;;;;;;;9.47;86.18;101817.00;5021425;28;20060;-63
2021/11/15 00:21:10;;;;;;;28.35;20.35;;;;;;;9.20;87.32;101829.44;5038165;28;20049;-63
2021/11/15 00:23:40;;;;;;;30.05;21.20;;;;;;;9.42;87.08;101836.28;5056291;28;20650;-62
2021/11/15 00:26:08;;;;;;;28.67;20.08;;;;;;;9.49;86.06;101827.72;5038802;28;20151;-62
2021/11/15 00:28:38;;;;;;;;;;;;;;;9.49;86.08;101822.22;5070684;28;20046;-62
2021/11/15 00:31:09;;;;;;;31.20;21.45;;;;;;;9.08;87.50;101838.00;5037006;28;19921;-62
2021/11/15 00:33:37;;;;;;;32.13;21.85;;;;;;;9.07;87.68;101834.41;5037043;28;20049;-63
2021/11/15 00:36:07;;;;;;;32.97;22.67;;;;;;;8.77;89.17;101836.34;5036824;28;20121;-62
2021/11/15 00:38:44;;;;;;;30.88;21.50;;;;;;;8.85;88.87;101833.88;5041447;28;20052;-62
2021/11/15 00:41:12;;;;;;;31.80;23.27;;;;;;;8.97;88.88;101845.41;5073829;28;20106;-61
2021/11/15 00:43:42;;;;;;;31.80;22.15;;;;;;;9.05;87.98;101842.09;5053854;28;20527;-63
2021/11/15 00:46:10;;;;;;;32.38;22.58;;;;;;;9.02;88.22;101841.81;5056826;28;20065;-62
2021/11/15 00:48:38;;;;;;;29.10;21.75;;;;;;;8.84;88.32;101842.38;5056848;28;20037;-62
2021/11/15 00:51:06;;;;;;;38.40;23.23;;;;;;;8.79;89.03;101837.72;5089307;28;20056;-63
2021/11/15 00:53:35;;;;;;;30.63;22.45;;;;;;;8.78;88.92;101838.00;5056688;28;20045;-62
2021/11/15 00:56:02;;;;;;;32.25;21.27;;;;;;;8.92;88.45;101842.69;5055459;28;20067;-62
2021/11/15 00:58:30;;;;;;;31.45;22.23;;;;;;;8.88;88.27;101841.56;5057596;28;20049;-62
2021/11/15 01:00:57;;;;;;;32.22;22.88;;;;;;;8.92;88.07;101839.09;5056382;28;20057;-62
2021/11/15 01:03:25;;;;;;;33.88;22.52;;;;;;;8.89;87.95;101842.41;5057987;28;20064;-62
2021/11/15 01:05:52;;;;;;;32.90;23.08;;;;;;;8.75;89.05;101844.03;5057345;28;20052;-62
2021/11/15 01:08:20;;;;;;;30.52;22.77;;;;;;;8.74;88.65;101839.63;5056127;28;20057;-62
2021/11/15 01:10:49;;;;;;;37.50;22.95;;;;;;;8.67;88.83;101845.41;5057774;28;20068;-62
2021/11/15 01:13:17;;;;;;;36.45;23.60;;;;;;;8.61;88.87;101851.16;5057399;28;20057;-62
2021/11/15 01:15:44;;;;;;;32.42;22.58;;;;;;;8.60;88.94;101849.50;5055942;28;20048;-64
2021/11/15 01:18:12;;;;;;;33.78;22.90;;;;;;;8.57;89.21;101853.63;5056033;28;20045;-63
2021/11/15 01:20:39;;;;;;;31.10;22.65;;;;;;;8.60;88.31;101846.75;5057043;28;20053;-63
2021/11/15 01:23:07;;;;;;;34.78;23.85;;;;;;;8.62;88.33;101837.16;5088805;28;20156;-63
2021/11/15 01:25:37;;;;;;;31.90;22.27;;;;;;;8.94;87.94;101843.19;5039774;28;20056;-64
2021/11/15 01:28:05;;;;;;;37.70;24.00;;;;;;;9.12;86.32;101835.50;5057472;28;20049;-64
2021/11/15 01:30:33;;;;;;;43.95;26.42;;;;;;;8.90;87.63;101839.38;5039372;28;20053;-63
2021/11/15 01:33:01;;;;;;;39.53;26.40;;;;;;;8.62;88.82;101842.66;5057235;28;20072;-65
2021/11/15 01:35:28;;;;;;;34.45;24.33;;;;;;;8.88;88.24;101832.50;5056746;28;20068;-64
2021/11/15 01:37:56;;;;;;;37.55;25.27;;;;;;;8.68;87.84;101840.75;5057203;28;20053;-64
2021/11/15 01:40:31;;;;;;;33.53;23.75;;;;;;;8.98;86.81;101838.81;5071903;28;20055;-64
2021/11/15 01:43:00;;;;;;;38.53;25.17;;;;;;;9.13;86.17;101846.22;5048232;28;20068;-64
2021/11/15 01:45:30;;;;;;;37.65;24.65;;;;;;;8.72;87.90;101839.06;5056722;28;20048;-64
2021/11/15 01:48:00;;;;;;;36.53;25.52;;;;;;;8.86;86.73;101845.66;5056846;28;20045;-63
2021/11/15 01:50:30;;;;;;;38.22;24.70;;;;;;;8.98;86.85;101840.72;5056610;28;20053;-63
2021/11/15 01:53:01;;;;;;;;;;;;;;;8.53;87.50;101843.44;5056509;28;20051;-63
2021/11/15 01:55:31;;;;;;;36.35;23.90;;;;;;;8.79;87.76;101842.38;5056953;28;19921;-64
2021/11/15 01:58:00;;;;;;;34.03;24.10;;;;;;;8.75;86.94;101841.28;5054873;28;20057;-63
2021/11/15 02:00:31;;;;;;;38.83;25.98;;;;;;;8.61;87.46;101840.19;5055476;28;20048;-63
2021/11/15 02:03:00;;;;;;;37.10;25.55;;;;;;;8.80;87.58;101844.03;5056619;28;20049;-63
2021/11/15 02:05:28;;;;;;;34.92;25.02;;;;;;;8.41;87.89;101845.63;5022306;28;20075;-63
2021/11/15 02:07:55;;;;;;;36.97;25.35;;;;;;;8.33;89.28;101844.25;5056340;28;20374;-64
2021/11/15 02:10:23;;;;;;;34.75;24.25;;;;;;;8.47;88.99;101842.59;5056526;28;20060;-63
2021/11/15 02:12:50;;;;;;;35.55;24.55;;;;;;;8.38;88.62;101843.44;5055102;28;20068;-63
2021/11/15 02:15:18;;;;;;;35.85;25.70;;;;;;;8.52;87.92;101848.13;5056121;28;20075;-64
2021/11/15 02:17:47;;;;;;;35.33;24.83;;;;;;;8.62;87.26;101841.81;5057536;27;20060;-63
2021/11/15 02:20:20;;;;;;;32.92;23.40;;;;;;;8.86;86.25;101842.94;5056116;28;20048;-63
2021/11/15 02:22:49;;;;;;;34.80;24.02;;;;;;;8.97;85.27;101844.59;5056333;28;20057;-62
2021/11/15 02:25:18;;;;;;;31.83;22.88;;;;;;;8.98;85.12;101851.72;5055875;28;20405;-63
2021/11/15 02:27:46;;;;;;;34.85;24.85;;;;;;;8.73;85.47;101854.47;5056137;28;20049;-64
2021/11/15 02:30:21;;;;;;;33.95;24.02;;;;;;;8.95;85.52;101846.78;5055790;28;20045;-63
2021/11/15 02:32:49;;;;;;;35.72;23.77;;;;;;;8.54;85.58;101843.16;5055929;28;20056;-63
2021/11/15 02:35:17;;;;;;;32.00;23.63;;;;;;;8.57;86.41;101845.41;5053107;28;20052;-62
2021/11/15 02:37:47;;;;;;;35.20;24.45;;;;;;;8.05;88.06;101847.44;5055905;28;20072;-63
2021/11/15 02:40:17;;;;;;;38.35;25.77;;;;;;;8.33;87.78;101844.25;5070890;28;20045;-63
2021/11/15 02:42:44;;;;;;;;;;;;;;;8.43;87.12;101852.50;5071770;28;20404;-64
2021/11/15 02:45:12;;;;;;;39.20;26.83;;;;;;;8.07;88.00;101852.66;5050039;28;19943;-64
2021/11/15 02:47:40;;;;;;;41.47;26.67;;;;;;;8.18;88.02;101846.06;5055717;28;20148;-62
2021/11/15 02:50:10;;;;;;;37.08;25.90;;;;;;;8.11;88.19;101846.34;5037028;28;20056;-63
2021/11/15 02:52:41;;;;;;;37.53;26.50;;;;;;;8.21;88.37;101851.84;5055757;28;20063;-63
2021/11/15 02:55:09;;;;;;;39.38;26.17;;;;;;;7.83;88.96;101852.25;5056426;28;20380;-62
2021/11/15 02:57:37;;;;;;;40.30;27.05;;;;;;;7.97;89.42;101845.19;5054758;28;20056;-62
2021/11/15 03:00:06;;;;;;;39.92;25.63;;;;;;;8.24;89.02;101851.38;5055734;28;20464;-63
2021/11/15 03:02:33;;;;;;;36.38;26.05;;;;;;;8.27;88.56;101855.47;5055660;28;20060;-62
2021/11/15 03:05:00;;;;;;;42.25;26.88;;;;;;;8.07;87.73;101861.72;5054365;28;20060;-62
2021/11/15 03:07:28;;;;;;;38.75;26.40;;;;;;;7.63;90.36;101850.28;5053894;28;20053;-62
2021/11/15 03:09:55;;;;;;;43.90;29.33;;;;;;;7.49;92.23;101849.09;5055415;28;20052;-62
2021/11/15 03:12:31;;;;;;;44.03;28.75;;;;;;;7.55;91.88;101850.75;5054145;28;20528;-62
2021/11/15 03:14:59;;;;;;;45.60;30.45;;;;;;;7.40;92.30;101855.31;5054853;28;20064;-64
2021/11/15 03:17:26;;;;;;;46.58;30.05;;;;;;;7.31;93.38;101851.44;5055131;28;20072;-61
2021/11/15 03:19:53;;;;;;;46.25;30.48;;;;;;;7.39;93.37;101848.22;5053869;28;20750;-62
2021/11/15 03:22:21;;;;;;;46.25;30.70;;;;;;;7.52;92.86;101842.25;5054865;28;20412;-63
2021/11/15 03:24:48;;;;;;;41.03;28.85;;;;;;;7.75;91.62;101850.88;5054416;28;20053;-62
2021/11/15 03:27:16;;;;;;;41.63;28.88;;;;;;;8.12;90.81;101858.97;5054993;28;20406;-65
2021/11/15 03:29:44;;;;;;;45.13;29.17;;;;;;;8.07;88.91;101858.97;5054905;28;20068;-62
2021/11/15 03:32:13;;;;;;;43.55;29.42;;;;;;;7.74;89.55;101846.47;5053401;28;20481;-61
2021/11/15 03:34:41;;;;;;;41.33;27.25;;;;;;;7.85;89.47;101850.09;5053086;28;20040;-62
2021/11/15 03:37:09;;;;;;;41.95;28.85;;;;;;;7.61;90.12;101849.72;5054533;28;20072;-63
2021/11/15 03:39:37;;;;;;;44.92;29.27;;;;;;;7.94;89.85;101852.06;5064663;28;20051;-62
2021/11/15 03:42:04;;;;;;;42.65;29.17;;;;;;;7.95;89.58;101855.59;5073998;28;20052;-63
2021/11/15 03:44:31;;;;;;;41.65;28.17;;;;;;;8.00;89.45;101853.72;5058124;28;20053;-62
2021/11/15 03:46:59;;;;;;;39.92;27.23;;;;;;;8.27;88.06;101850.81;5051346;28;20098;-62
2021/11/15 03:49:26;;;;;;;39.72;26.92;;;;;;;8.08;87.82;101857.88;5053268;28;20060;-62
2021/11/15 03:51:53;;;;;;;39.67;28.02;;;;;;;7.95;88.51;101850.13;5053803;28;20045;-62
2021/11/15 03:54:20;;;;;;;42.75;29.77;;;;;;;7.93;88.57;101844.91;5053369;28;20057;-63
2021/11/15 03:56:48;;;;;;;40.78;28.58;;;;;;;7.76;89.65;101844.28;5053992;28;20063;-63
2021/11/15 03:59:15;;;;;;;43.63;29.77;;;;;;;7.71;90.27;101841.53;5054632;28;20045;-63
2021/11/15 04:01:44;;;;;;;43.00;29.75;;;;;;;7.82;89.91;101854.19;5053222;28;20060;-62
2021/11/15 04:04:17;;;;;;;46.03;29.17;;;;;;;7.73;90.21;101857.72;5054281;28;20048;-61
2021/11/15 04:06:52;;;;;;;41.72;28.60;;;;;;;7.94;88.42;101857.53;5054093;28;20056;-64
2021/11/15 04:09:19;;;;;;;43.65;28.35;;;;;;;7.80;88.95;101859.13;5054388;28;20060;-63
2021/11/15 04:11:47;;;;;;;44.35;28.63;;;;;;;7.62;89.98;101856.00;5054607;28;20052;-63
2021/11/15 04:14:15;;;;;;;44.97;29.20;;;;;;;7.57;90.73;101854.06;5052543;28;20132;-64
2021/11/15 04:16:44;;;;;;;44.95;30.65;;;;;;;7.39;92.32;101850.94;5054111;28;20059;-63
2021/11/15 04:19:17;;;;;;;45.90;29.05;;;;;;;7.83;91.14;101855.00;5052948;28;20037;-61
2021/11/15 04:21:44;;;;;;;42.35;29.38;;;;;;;7.71;90.25;101852.50;5052718;28;20049;-61
2021/11/15 04:24:12;;;;;;;44.72;30.30;;;;;;;7.87;90.03;101853.38;5052938;28;20684;-62
2021/11/15 04:26:39;;;;;;;40.42;28.30;;;;;;;8.16;89.13;101856.53;5054170;28;20044;-63
2021/11/15 04:29:06;;;;;;;40.50;28.60;;;;;;;7.92;88.48;101850.66;5054045;28;20500;-63
2021/11/15 04:31:33;;;;;;;45.63;30.20;;;;;;;7.85;89.69;101847.34;5054222;28;20380;-63
2021/11/15 04:34:01;;;;;;;46.92;30.98;;;;;;;7.68;89.48;101850.28;5054387;28;20532;-62
2021/11/15 04:36:28;;;;;;;51.70;32.70;;;;;;;7.49;90.62;101851.00;5053990;28;20045;-62
2021/11/15 04:38:56;;;;;;;53.50;33.78;;;;;;;7.40;90.89;101847.09;5054229;28;20056;-64
2021/11/15 04:41:23;;;;;;;57.08;35.30;;;;;;;7.74;90.37;101842.91;5053456;28;20060;-62
2021/11/15 04:43:50;;;;;;;51.65;35.00;;;;;;;7.59;90.54;101835.44;5053864;28;20040;-62
2021/11/15 04:46:18;;;;;;;52.88;36.03;;;;;;;7.37;91.48;101837.50;5039143;28;20049;-62
2021/11/15 04:48:45;;;;;;;49.83;33.90;;;;;;;7.47;90.90;101831.25;5032998;28;20057;-63
2021/11/15 04:51:12;;;;;;;50.85;32.88;;;;;;;7.25;91.48;101836.06;5033790;28;20462;-62
2021/11/15 04:53:39;;;;;;;49.28;32.22;;;;;;;7.64;91.41;101832.72;5034915;28;20485;-62
2021/11/15 04:56:07;;;;;;;48.78;31.92;;;;;;;7.54;90.62;101831.84;5037833;28;20083;-62
2021/11/15 04:58:36;;;;;;;51.42;32.22;;;;;;;7.27;91.20;101837.41;5037753;28;20417;-62
2021/11/15 05:01:04;;;;;;;48.45;32.58;;;;;;;7.28;91.51;101824.56;5036007;28;20060;-63
2021/11/15 05:03:35;;;;;;;50.97;32.90;;;;;;;7.19;92.32;101834.34;5035670;28;20049;-62
2021/11/15 05:06:03;;;;;;;49.90;33.17;;;;;;;7.19;92.50;101831.63;5037613;28;20075;-62
2021/11/15 05:08:31;;;;;;;51.17;32.38;;;;;;;7.24;91.46;101837.13;5037721;28;20053;-64
2021/11/15 05:10:58;;;;;;;52.40;33.05;;;;;;;7.19;91.58;101829.72;5037356;28;20075;-63
2021/11/15 05:13:25;;;;;;;50.03;32.08;;;;;;;6.96;93.04;101829.28;5037736;28;20060;-63
2021/11/15 05:15:53;;;;;;;54.13;33.08;;;;;;;6.89;93.43;101836.91;5019973;28;20050;-64
2021/11/15 05:18:21;;;;;;;52.72;33.53;;;;;;;6.91;94.29;101830.06;5036329;28;20125;-64
2021/11/15 05:20:48;;;;;;;53.22;33.95;;;;;;;6.88;95.00;101836.06;5036891;28;20492;-64
2021/11/15 05:23:15;;;;;;;50.80;32.10;;;;;;;6.81;94.97;101835.44;5037435;28;20053;-63
2021/11/15 05:25:43;;;;;;;50.25;32.58;;;;;;;7.02;94.22;101839.16;5037467;28;20041;-62
2021/11/15 05:28:11;;;;;;;50.50;31.10;;;;;;;6.98;94.47;101835.28;5037357;28;20052;-63
2021/11/15 05:30:38;;;;;;;52.30;32.97;;;;;;;6.83;95.11;101842.31;5035631;28;20057;-62
2021/11/15 05:33:06;;;;;;;51.95;31.83;;;;;;;6.95;94.71;101838.56;5036137;28;20092;-62
2021/11/15 05:35:35;;;;;;;;;;;;;;;7.03;93.98;101841.66;5037566;28;20057;-63
2021/11/15 05:38:03;;;;;;;50.80;31.17;;;;;;;7.04;94.10;101843.31;5037114;28;20301;-63
2021/11/15 05:40:31;;;;;;;48.72;31.90;;;;;;;7.34;93.33;101831.72;5070450;28;20049;-63
2021/11/15 05:42:59;;;;;;;44.33;29.33;;;;;;;7.40;91.79;101836.97;5076755;28;20059;-63
2021/11/15 05:45:27;;;;;;;46.95;30.90;;;;;;;7.40;91.91;101838.88;5069360;28;20045;-62
2021/11/15 05:47:55;;;;;;;47.45;30.77;;;;;;;7.41;91.40;101841.34;5053920;28;20517;-62
2021/11/15 05:50:23;;;;;;;48.70;31.88;;;;;;;7.18;92.14;101850.00;5056420;28;20477;-63
2021/11/15 05:52:51;;;;;;;53.75;33.65;;;;;;;7.16;93.09;101854.06;5055501;28;20044;-64
2021/11/15 05:55:21;;;;;;;50.30;32.47;;;;;;;7.35;93.00;101852.56;5056740;28;20057;-63
2021/11/15 05:57:50;;;;;;;51.85;32.30;;;;;;;7.47;92.11;101854.00;5056633;28;20053;-62
2021/11/15 06:00:21;;;;;;;49.33;31.35;;;;;;;7.58;90.89;101850.22;5056386;28;20045;-63
2021/11/15 06:02:49;;;;;;;50.30;32.13;;;;;;;7.69;90.84;101856.59;5038523;28;20436;-63
2021/11/15 06:05:16;;;;;;;47.70;31.48;;;;;;;7.79;89.56;101862.94;5053946;28;20395;-64
2021/11/15 06:07:43;;;;;;;49.58;31.75;;;;;;;7.96;89.21;101851.78;5056281;28;20060;-64
2021/11/15 06:10:11;;;;;;;48.97;32.15;;;;;;;7.90;88.51;101852.84;5056383;28;20053;-62
2021/11/15 06:12:38;;;;;;;46.17;30.75;;;;;;;7.78;88.67;101860.47;5056166;28;20053;-63
2021/11/15 06:15:08;;;;;;;50.13;32.15;;;;;;;7.55;89.55;101856.25;5056489;28;20053;-63
2021/11/15 06:17:35;;;;;;;49.40;31.48;;;;;;;7.79;89.65;101853.91;5056338;28;20059;-62
2021/11/15 06:20:06;;;;;;;51.97;31.60;;;;;;;7.95;88.53;101867.41;5055851;28;20049;-63
2021/11/15 06:22:34;;;;;;;47.78;30.00;;;;;;;7.73;88.08;101857.72;5056378;28;20053;-63
2021/11/15 06:25:01;;;;;;;48.85;30.25;;;;;;;7.52;88.82;101870.47;5055095;28;20519;-62
2021/11/15 06:27:28;;;;;;;44.70;28.92;;;;;;;7.44;90.31;101871.00;5055019;28;20052;-64
2021/11/15 06:29:56;;;;;;;46.67;28.38;;;;;;;7.37;90.49;101878.63;5056074;28;20064;-62
2021/11/15 06:32:24;;;;;;;43.40;27.02;;;;;;;7.21;90.21;101873.28;5054257;28;20080;-62
2021/11/15 06:34:51;;;;;;;46.38;27.67;;;;;;;7.07;91.84;101869.34;5055820;28;20055;-62
2021/11/15 06:37:19;;;;;;;49.03;29.05;;;;;;;7.20;91.90;101874.38;5047004;28;20058;-63
2021/11/15 06:39:46;;;;;;;43.38;27.40;;;;;;;7.25;91.44;101874.41;5066573;28;20052;-62
2021/11/15 06:42:14;;;;;;;51.50;28.23;;;;;;;7.05;92.45;101879.72;5055976;28;20044;-62
2021/11/15 06:44:41;;;;;;;49.08;29.15;;;;;;;6.84;93.96;101878.72;5056005;28;20053;-63
2021/11/15 06:47:09;;;;;;;53.75;28.92;;;;;;;6.93;93.94;101895.50;5049050;28;20068;-63
2021/11/15 06:49:37;;;;;;;49.13;29.25;;;;;;;7.10;93.51;101886.06;5055286;28;20061;-63
2021/11/15 06:52:05;;;;;;;46.90;28.48;;;;;;;7.22;92.32;101881.25;5055259;28;20048;-63
2021/11/15 06:54:33;;;;;;;45.53;27.27;;;;;;;7.18;92.18;101893.00;5055777;28;20041;-63
2021/11/15 06:57:00;;;;;;;46.67;28.58;;;;;;;7.44;91.39;101881.97;5055793;28;20120;-63
2021/11/15 06:59:27;;;;;;;48.40;29.08;;;;;;;7.62;90.39;101897.13;5055550;28;20064;-63
2021/11/15 07:01:54;;;;;;;46.72;28.73;;;;;;;7.45;90.29;101901.94;5046122;28;20049;-63
2021/11/15 07:04:22;;;;;;;54.70;31.23;;;;;;;7.08;92.31;101910.16;5048927;28;20053;-63
2021/11/15 07:06:49;;;;;;;53.47;31.10;;;;;;;7.10;92.75;101910.72;5053334;28;20045;-62
2021/11/15 07:09:17;;;;;;;55.40;31.48;;;;;;;7.13;92.89;101906.66;5055387;28;20061;-63
2021/11/15 07:11:45;;;;;;;55.50;31.27;;;;;;;6.86;94.24;101917.66;5054667;28;20500;-62
2021/11/15 07:14:12;;;;;;;54.72;30.90;;;;;;;7.07;93.89;101916.75;5039091;28;20046;-64
2021/11/15 07:16:39;;;;;;;54.15;29.88;;;;;;;6.95;94.13;101910.63;5050258;28;20412;-62
2021/11/15 07:19:07;;;;;;;53.22;30.38;;;;;;;7.13;94.15;101918.41;5051034;28;20052;-62
2021/11/15 07:21:34;;;;;;;49.10;30.35;;;;;;;7.21;93.44;101917.97;5054027;28;20068;-63
2021/11/15 07:24:02;;;;;;;53.45;31.20;;;;;;;7.27;92.51;101911.41;5053514;28;20075;-63
2021/11/15 07:26:30;;;;;;;55.13;32.47;;;;;;;7.16;92.91;101911.59;5054953;28;20128;-63
2021/11/15 07:28:57;;;;;;;50.40;30.25;;;;;;;7.21;92.78;101909.75;5055246;28;20060;-63
2021/11/15 07:31:25;;;;;;;49.05;30.05;;;;;;;7.25;92.93;101918.25;5059729;28;20044;-65
2021/11/15 07:33:56;;;;;;;52.45;30.05;;;;;;;7.35;92.12;101915.59;5039909;28;20064;-63
2021/11/15 07:36:24;;;;;;;46.45;28.85;;;;;;;7.68;91.50;101921.59;5036745;28;20049;-65
2021/11/15 07:38:51;;;;;;;50.50;29.33;;;;;;;7.44;91.04;101919.50;5046514;28;20044;-65
2021/11/15 07:41:19;;;;;;;46.67;28.05;;;;;;;7.65;91.34;101930.31;5040970;28;20060;-66
2021/11/15 07:43:46;;;;;;;47.20;28.75;;;;;;;7.63;90.82;101926.22;5044731;28;20061;-63
2021/11/15 07:46:14;;;;;;;44.03;27.85;;;;;;;7.62;90.36;101932.75;5044998;28;20051;-66
2021/11/15 07:48:41;;;;;;;46.33;29.20;;;;;;;7.47;91.08;101929.94;5040863;28;20042;-65
2021/11/15 07:51:08;;;;;;;46.22;28.02;;;;;;;7.52;92.44;101940.94;5042682;28;20053;-64
2021/11/15 07:53:37;;;;;;;41.05;26.13;;;;;;;7.89;91.35;101944.47;5043989;28;20044;-64
2021/11/15 07:56:07;;;;;;;41.83;25.33;;;;;;;8.30;89.72;101945.53;5044139;28;20053;-64
2021/11/15 07:58:34;;;;;;;43.17;26.30;;;;;;;8.02;88.85;101942.06;5048998;28;20107;-67
2021/11/15 08:01:02;;;;;;;43.10;26.38;;;;;;;8.19;87.91;101947.38;5043658;28;20065;-65
2021/11/15 08:03:30;;;;;;;42.90;27.65;;;;;;;7.76;88.17;101953.97;5039686;28;20449;-65
2021/11/15 08:05:58;;;;;;;45.58;29.00;;;;;;;7.33;90.99;101959.72;5035453;28;20045;-63
2021/11/15 08:08:25;;;;;;;41.10;26.83;;;;;;;7.31;90.12;101953.66;5036882;28;20072;-62
2021/11/15 08:10:54;;;;;;;44.55;26.98;;;;;;;7.48;90.60;101957.06;5046519;28;20053;-62
2021/11/15 08:13:26;;;;;;;43.55;27.20;;;;;;;7.74;89.37;101955.34;5043010;28;20057;-63
2021/11/15 08:15:57;;;;;;;43.55;26.13;;;;;;;7.57;88.96;101952.75;5054843;28;20079;-63
2021/11/15 08:18:24;;;;;;;42.80;26.45;;;;;;;7.63;89.45;101948.97;5054905;28;20064;-62
2021/11/15 08:20:51;;;;;;;46.53;26.38;;;;;;;7.52;89.41;101952.72;5054670;28;20057;-63
2021/11/15 08:23:19;;;;;;;43.53;25.45;;;;;;;7.55;90.20;101943.97;5052823;28;20063;-63
2021/11/15 08:26:09;;;;;;;38.50;25.20;;;;;;;7.56;90.20;101955.78;5038685;28;20048;-62
2021/11/15 08:28:36;;;;;;;38.55;25.38;;;;;;;7.76;89.44;101947.66;5045914;28;20045;-62
2021/11/15 08:31:05;;;;;;;38.95;24.38;;;;;;;7.78;88.21;101965.53;5038903;28;20075;-62
2021/11/15 08:33:33;;;;;;;40.17;25.20;;;;;;;7.82;87.74;101968.56;5059184;28;20489;-62
2021/11/15 08:36:00;;;;;;;38.17;24.45;;;;;;;7.69;88.20;101961.63;5037351;28;20046;-63
2021/11/15 08:38:41;;;;;;;42.65;23.92;;;;;;;7.54;89.64;101958.78;5042109;28;20461;-64
2021/11/15 08:41:10;;;;;;;39.78;23.63;;;;;;;7.53;89.32;101956.31;5058565;28;20049;-64
2021/11/15 08:43:38;;;;;;;37.33;24.45;;;;;;;7.59;89.46;101960.72;5050637;28;20072;-62
2021/11/15 08:46:07;;;;;;;37.00;23.88;;;;;;;7.48;89.66;101954.34;5053743;28;20044;-62
2021/11/15 08:48:35;;;;;;;35.28;23.63;;;;;;;7.81;88.93;101950.47;5052915;28;20060;-65
2021/11/15 08:51:07;;;;;;;36.03;23.42;;;;;;;7.89;87.34;101949.97;5045711;28;20087;-63
2021/11/15 08:53:35;;;;;;;35.47;23.00;;;;;;;7.85;87.61;101951.56;5062505;28;20057;-62
2021/11/15 08:56:04;;;;;;;33.75;22.92;;;;;;;8.14;87.46;101943.78;5046710;28;20049;-63
2021/11/15 08:58:34;;;;;;;39.25;24.85;;;;;;;8.32;86.32;101946.06;5053232;28;20076;-65
2021/11/15 09:01:02;;;;;;;;;;;;;;;7.67;88.37;101941.06;5041714;28;20053;-64
2021/11/15 09:03:30;;;;;;;39.13;24.30;;;;;;;8.10;87.11;101948.97;5057369;28;19927;-65
2021/11/15 09:05:58;;;;;;;36.85;23.88;;;;;;;7.78;88.24;101949.06;5040379;28;20045;-62
2021/11/15 09:08:25;;;;;;;40.30;24.80;;;;;;;7.68;89.75;101945.44;5049385;28;20052;-63
2021/11/15 09:10:53;;;;;;;36.08;24.27;;;;;;;8.04;88.70;101949.22;5058236;27;20512;-62
2021/11/15 09:13:20;;;;;;;36.70;24.08;;;;;;;8.02;87.50;101934.94;5055992;28;20207;-62
2021/11/15 09:15:48;;;;;;;36.25;23.20;;;;;;;7.90;88.03;101938.72;5057271;28;20052;-63
2021/11/15 09:18:15;;;;;;;40.13;24.60;;;;;;;7.69;89.28;101942.41;5052957;28;20053;-61
2021/11/15 09:20:42;;;;;;;35.47;22.42;;;;;;;7.89;88.75;101934.34;5043863;28;20447;-63
2021/11/15 09:23:10;;;;;;;37.80;22.63;;;;;;;7.80;88.89;101933.19;5045989;28;20417;-65
2021/11/15 09:25:40;;;;;;;34.25;22.65;;;;;;;7.84;87.61;101941.69;5054682;28;20061;-62
2021/11/15 09:28:09;;;;;;;34.63;23.45;;;;;;;7.75;89.03;101943.28;5035080;28;20073;-61
2021/11/15 09:30:38;;;;;;;38.78;23.40;;;;;;;7.72;89.10;101947.38;5041446;28;20136;-62
2021/11/15 09:33:06;;;;;;;33.58;21.73;;;;;;;8.34;88.15;101939.22;5055778;28;20048;-62
2021/11/15 09:35:34;;;;;;;35.17;22.27;;;;;;;8.48;86.91;101939.53;5038879;28;20054;-61
2021/11/15 09:38:02;;;;;;;35.55;20.85;;;;;;;8.91;85.74;101934.44;5038373;28;20049;-61
2021/11/15 09:40:32;;;;;;;34.10;22.50;;;;;;;9.23;83.79;101930.59;5058006;28;20067;-62
2021/11/15 09:43:00;;;;;;;36.78;22.08;;;;;;;9.49;82.18;101938.56;5046605;28;20041;-63
2021/11/15 09:45:27;;;;;;;35.40;22.48;;;;;;;9.24;81.20;101940.50;5057806;28;20037;-62
2021/11/15 09:47:57;;;;;;;33.15;22.25;;;;;;;9.29;81.04;101941.34;5045822;28;20054;-63
2021/11/15 09:50:25;;;;;;;35.03;21.98;;;;;;;9.14;82.10;101946.81;5049794;28;20051;-60
2021/11/15 09:52:53;;;;;;;36.47;22.70;;;;;;;8.95;82.73;101951.19;5033423;28;20520;-62
2021/11/15 09:55:21;;;;;;;39.22;23.75;;;;;;;8.93;82.81;101959.72;5056693;28;20052;-62
2021/11/15 09:57:49;;;;;;;35.90;22.42;;;;;;;8.56;84.80;101966.50;5044268;28;20057;-62
2021/11/15 10:00:21;;;;;;;36.33;22.33;;;;;;;9.17;83.70;101965.50;5045068;28;20052;-62
2021/11/15 10:02:50;;;;;;;39.78;24.33;;;;;;;8.45;84.54;101976.63;5042979;28;20041;-63
2021/11/15 10:05:19;;;;;;;42.08;25.52;;;;;;;8.55;85.29;101962.09;5035604;28;20057;-65
2021/11/15 10:07:51;;;;;;;40.67;24.48;;;;;;;8.38;85.68;101969.72;5072541;28;20062;-65
2021/11/15 10:10:55;;;;;;;46.85;26.23;;;;;;;8.13;87.81;101959.41;5044985;28;20053;-63
2021/11/15 10:13:31;;;;;;;40.90;24.95;;;;;;;8.06;87.54;101958.81;5044970;28;20059;-62
2021/11/15 10:15:59;;;;;;;45.72;26.05;;;;;;;8.05;87.52;101946.22;5046313;28;20648;-63
2021/11/15 10:18:35;;;;;;;45.55;24.73;;;;;;;7.81;89.70;101951.28;5033142;28;20045;-63
2021/11/15 10:21:20;;;;;;;40.70;23.60;;;;;;;7.58;90.31;101953.59;5056906;28;20531;-63
2021/11/15 10:23:53;;;;;;;39.58;23.80;;;;;;;8.02;90.30;101958.53;5038626;28;20049;-65
2021/11/15 10:27:00;;;;;;;47.40;25.17;;;;;;;8.05;88.51;101945.38;5043156;28;20064;-63
2021/11/15 10:29:35;;;;;;;43.70;25.35;;;;;;;7.80;90.23;101959.78;5088008;28;21481;-63
2021/11/15 10:32:12;;;;;;;45.70;25.58;;;;;;;7.78;90.81;101950.97;5038611;28;20052;-63
2021/11/15 10:34:48;;;;;;;47.95;26.45;;;;;;;8.21;90.04;101953.41;5039330;28;20079;-62
2021/11/15 10:37:16;;;;;;;46.30;25.23;;;;;;;8.16;87.93;101953.38;5041616;28;20045;-63
2021/11/15 10:39:50;;;;;;;43.17;23.73;;;;;;;8.30;88.21;101951.03;5058262;28;20053;-62
2021/11/15 10:42:29;;;;;;;46.42;25.63;;;;;;;7.79;88.90;101958.13;5038739;28;20065;-63
2021/11/15 10:45:03;;;;;;;46.58;24.02;;;;;;;7.76;90.40;101955.91;5035291;28;20507;-62
2021/11/15 10:47:43;;;;;;;40.58;24.25;;;;;;;8.25;89.59;101937.25;5050679;28;20052;-63
2021/11/15 10:50:34;;;;;;;40.63;24.25;;;;;;;7.89;89.39;101938.97;5036115;28;20405;-63
2021/11/15 10:53:08;;;;;;;40.67;23.60;;;;;;;8.25;88.72;101938.09;5034977;28;20052;-65
2021/11/15 10:55:39;;;;;;;42.40;24.30;;;;;;;8.27;87.75;101933.16;5049828;28;20068;-63
2021/11/15 10:58:13;;;;;;;43.05;24.02;;;;;;;8.26;87.78;101933.44;5046426;28;20053;-64
2021/11/15 11:00:49;;;;;;;42.03;24.17;;;;;;;8.39;86.62;101933.75;5035790;28;20057;-64
2021/11/15 11:03:22;;;;;;;46.78;24.38;;;;;;;8.36;87.30;101937.03;5041644;28;20542;-62
2021/11/15 11:05:52;;;;;;;39.53;23.80;;;;;;;8.35;87.47;101935.38;5055385;28;20045;-64
2021/11/15 11:08:49;;;;;;;;;;;;;;;8.61;86.42;101928.88;5055555;28;20087;-64
2021/11/15 11:11:29;;;;;;;49.72;25.15;;;;;;;8.51;86.15;101926.09;5056259;28;19928;-65
2021/11/15 11:14:04;;;;;;;41.80;24.15;;;;;;;8.61;85.94;101930.81;5041508;28;20048;-64
2021/11/15 11:16:40;;;;;;;41.35;24.70;;;;;;;8.54;86.13;101931.03;5048058;28;20060;-64
2021/11/15 11:22:11;;;;;;;44.67;22.10;;;;;;;9.65;84.46;101929.19;5039479;28;20075;-68
2021/11/15 11:27:09;;;;;;;45.45;25.40;;;;;;;8.47;85.67;101933.22;5050280;28;20049;-61
2021/11/15 11:29:43;;;;;;;44.95;25.25;;;;;;;8.58;85.44;101929.41;5040220;28;20053;-61
2021/11/15 11:32:18;;;;;;;47.97;25.55;;;;;;;8.28;86.49;101925.75;5081588;28;20386;-61
2021/11/15 11:34:47;;;;;;;46.97;25.05;;;;;;;8.47;86.30;101935.97;5040680;28;20052;-62